Time;durP1;ratioP1;P1;durP2;ratioP2;P2;SDS_P1;SDS_P2;PMS_P1;PMS_P2;Temp;Humidity;BMP_temperature;BMP_pressure;BME280_temperature;BME280_humidity;BME280_pressure;Samples;Min_cycle;Max_cycle;Signal;HPM_P1;HPM_P2
2023/05/27 00:01:51;;;;;;;13.35;4.88;;;;;;;;;;5000844;28;20049;-70
2023/05/27 00:04:36;;;;;;;12.90;5.72;;;;;;;;;;5009706;28;20148;-69
2023/05/27 00:07:22;;;;;;;8.75;4.32;;;;;;;;;;5009493;28;20037;-69
2023/05/27 00:10:07;;;;;;;9.95;4.63;;;;;;;;;;5009342;28;20036;-70
2023/05/27 00:12:52;;;;;;;13.25;5.22;;;;;;;;;;5009543;28;20034;-72
2023/05/27 00:15:38;;;;;;;9.75;4.65;;;;;;;;;;5019146;28;20121;-71
2023/05/27 00:18:23;;;;;;;11.25;5.75;;;;;;;;;;4992656;28;20081;-70
2023/05/27 00:21:08;;;;;;;9.98;4.50;;;;;;;;;;5009259;28;20473;-70
2023/05/27 00:23:53;;;;;;;10.77;5.50;;;;;;;;;;5010055;28;20018;-71
2023/05/27 00:26:39;;;;;;;10.57;4.88;;;;;;;;;;4995334;28;20030;-76
2023/05/27 00:29:24;;;;;;;12.38;5.05;;;;;;;;;;5009258;28;20552;-72
2023/05/27 00:32:09;;;;;;;8.05;4.10;;;;;;;;;;5009931;28;20452;-71
2023/05/27 00:34:54;;;;;;;14.90;5.32;;;;;;;;;;5010038;28;20041;-71
2023/05/27 00:37:40;;;;;;;9.43;4.43;;;;;;;;;;4996280;28;20071;-72
2023/05/27 00:40:26;;;;;;;10.93;5.03;;;;;;;;;;5009331;28;20025;-71
2023/05/27 00:43:12;;;;;;;9.27;4.35;;;;;;;;;;5009032;28;20033;-69
2023/05/27 00:45:57;;;;;;;10.63;4.45;;;;;;;;;;5007983;28;20029;-75
2023/05/27 00:48:42;;;;;;;10.88;4.68;;;;;;;;;;5008130;28;20029;-77
2023/05/27 00:51:28;;;;;;;10.38;4.20;;;;;;;;;;4999467;28;20072;-75
2023/05/27 00:54:13;;;;;;;10.27;4.38;;;;;;;;;;5008575;28;20381;-74
2023/05/27 00:56:58;;;;;;;13.75;5.05;;;;;;;;;;5003024;28;20076;-75
2023/05/27 00:59:43;;;;;;;11.50;4.82;;;;;;;;;;5008799;28;20013;-75
2023/05/27 01:02:28;;;;;;;11.05;4.43;;;;;;;;;;4995041;28;20018;-75
2023/05/27 01:05:14;;;;;;;13.77;5.70;;;;;;;;;;5008695;28;20145;-75
2023/05/27 01:08:16;;;;;;;10.85;5.68;;;;;;;;;;5007750;28;20113;-77
2023/05/27 01:11:04;;;;;;;10.57;5.15;;;;;;;;;;5012939;28;20072;-76
2023/05/27 01:13:56;;;;;;;10.15;4.90;;;;;;;;;;5008738;28;20034;-77
2023/05/27 01:16:43;;;;;;;15.32;6.28;;;;;;;;;;5008163;28;20033;-75
2023/05/27 01:19:40;;;;;;;10.23;4.25;;;;;;;;;;5008436;28;20080;-73
2023/05/27 01:22:29;;;;;;;12.57;4.97;;;;;;;;;;4994140;28;20018;-70
2023/05/27 01:25:15;;;;;;;11.85;4.13;;;;;;;;;;5005325;28;20097;-76
2023/05/27 01:28:00;;;;;;;13.88;5.22;;;;;;;;;;5005409;28;20124;-76
2023/05/27 01:30:45;;;;;;;12.65;5.03;;;;;;;;;;5005271;28;20025;-76
2023/05/27 01:33:33;;;;;;;12.48;4.50;;;;;;;;;;4993523;28;20026;-75
2023/05/27 01:36:20;;;;;;;10.38;4.43;;;;;;;;;;5005690;28;20555;-76
2023/05/27 01:39:07;;;;;;;11.52;4.30;;;;;;;;;;5007784;28;20034;-69
2023/05/27 01:41:54;;;;;;;9.30;3.85;;;;;;;;;;5007825;28;20076;-75
2023/05/27 01:44:40;;;;;;;9.98;3.95;;;;;;;;;;5006884;28;20080;-77
2023/05/27 01:47:25;;;;;;;12.25;3.88;;;;;;;;;;4977901;28;20552;-75
2023/05/27 01:50:10;;;;;;;11.30;4.93;;;;;;;;;;5003851;28;20069;-76
2023/05/27 01:52:56;;;;;;;10.32;4.22;;;;;;;;;;4993992;28;20512;-75
2023/05/27 01:55:41;;;;;;;7.57;3.80;;;;;;;;;;5008333;28;20432;-75
2023/05/27 01:58:26;;;;;;;9.13;3.70;;;;;;;;;;5007837;28;20029;-72
2023/05/27 02:01:12;;;;;;;9.68;3.63;;;;;;;;;;4994119;28;20022;-70
2023/05/27 02:03:57;;;;;;;11.25;4.18;;;;;;;;;;5002002;28;20561;-71
2023/05/27 02:06:42;;;;;;;11.27;4.47;;;;;;;;;;5013468;28;20064;-74
2023/05/27 02:09:27;;;;;;;9.52;4.07;;;;;;;;;;4993644;28;20509;-70
2023/05/27 02:12:13;;;;;;;10.85;4.47;;;;;;;;;;5007393;28;20026;-68
2023/05/27 02:14:58;;;;;;;7.03;3.53;;;;;;;;;;5009648;28;20036;-74
2023/05/27 02:17:45;;;;;;;10.45;4.25;;;;;;;;;;5011330;28;20547;-73
2023/05/27 02:20:31;;;;;;;16.48;5.18;;;;;;;;;;5011155;28;20034;-73
2023/05/27 02:23:16;;;;;;;8.98;3.97;;;;;;;;;;5011823;28;20392;-74
2023/05/27 02:26:01;;;;;;;9.85;4.65;;;;;;;;;;5011615;28;20026;-75
2023/05/27 02:28:47;;;;;;;10.02;4.05;;;;;;;;;;5011687;28;20033;-74
2023/05/27 02:31:32;;;;;;;13.32;4.88;;;;;;;;;;5011795;28;20022;-76
2023/05/27 02:34:17;;;;;;;9.50;3.88;;;;;;;;;;5011039;28;20022;-71
2023/05/27 02:37:04;;;;;;;10.38;4.95;;;;;;;;;;4991479;28;20026;-75
2023/05/27 02:39:49;;;;;;;10.75;4.07;;;;;;;;;;4998275;28;20105;-74
2023/05/27 02:42:34;;;;;;;9.77;4.18;;;;;;;;;;5011430;28;20068;-74
2023/05/27 02:45:19;;;;;;;12.85;4.38;;;;;;;;;;5011519;28;20028;-73
2023/05/27 02:48:05;;;;;;;9.18;4.72;;;;;;;;;;5011667;28;20036;-74
2023/05/27 02:50:50;;;;;;;9.18;3.85;;;;;;;;;;4998289;28;20054;-73
2023/05/27 02:53:36;;;;;;;10.15;4.30;;;;;;;;;;4999034;28;20050;-72
2023/05/27 02:56:21;;;;;;;13.20;5.03;;;;;;;;;;5011116;28;21852;-68
2023/05/27 02:59:06;;;;;;;9.43;3.97;;;;;;;;;;4996795;28;20110;-69
2023/05/27 03:01:51;;;;;;;12.40;3.97;;;;;;;;;;5001403;28;20041;-69
2023/05/27 03:04:37;;;;;;;9.43;4.47;;;;;;;;;;5016200;28;20038;-69
2023/05/27 03:07:22;;;;;;;11.23;4.43;;;;;;;;;;5010896;28;20069;-68
2023/05/27 03:10:07;;;;;;;10.45;5.13;;;;;;;;;;5011048;28;20025;-69
2023/05/27 03:12:53;;;;;;;10.10;4.20;;;;;;;;;;5009915;28;20036;-66
2023/05/27 03:15:39;;;;;;;10.40;4.75;;;;;;;;;;5010778;28;20022;-66
2023/05/27 03:18:24;;;;;;;7.43;3.90;;;;;;;;;;5010657;28;20080;-68
2023/05/27 03:21:09;;;;;;;9.80;3.88;;;;;;;;;;4984419;28;20417;-68
2023/05/27 03:23:55;;;;;;;9.65;4.18;;;;;;;;;;5010355;28;20421;-66
2023/05/27 03:26:41;;;;;;;11.27;4.60;;;;;;;;;;4996528;28;20033;-67
2023/05/27 03:29:26;;;;;;;11.75;4.75;;;;;;;;;;5010517;28;20080;-70
2023/05/27 03:32:11;;;;;;;11.35;4.30;;;;;;;;;;5010804;28;20045;-68
2023/05/27 03:34:57;;;;;;;13.88;4.75;;;;;;;;;;5010309;28;20460;-69
2023/05/27 03:37:42;;;;;;;12.20;4.25;;;;;;;;;;5010458;28;20099;-69
2023/05/27 03:40:27;;;;;;;14.38;5.18;;;;;;;;;;5010368;28;20022;-68
2023/05/27 03:43:12;;;;;;;10.25;4.18;;;;;;;;;;5010448;28;20021;-68
2023/05/27 03:45:57;;;;;;;13.65;4.82;;;;;;;;;;5010246;28;20026;-71
2023/05/27 03:48:43;;;;;;;10.30;4.35;;;;;;;;;;5009771;28;20048;-70
2023/05/27 03:51:28;;;;;;;13.23;4.90;;;;;;;;;;4996053;28;20022;-69
2023/05/27 03:54:13;;;;;;;10.70;4.30;;;;;;;;;;5010003;28;20034;-68
2023/05/27 03:56:58;;;;;;;10.77;4.47;;;;;;;;;;5005700;28;20465;-69
2023/05/27 03:59:44;;;;;;;9.27;4.13;;;;;;;;;;5017702;28;20031;-68
2023/05/27 04:02:29;;;;;;;10.18;5.00;;;;;;;;;;5009962;28;20091;-70
2023/05/27 04:05:16;;;;;;;11.02;4.40;;;;;;;;;;5009544;28;20496;-70
2023/05/27 04:08:03;;;;;;;11.23;4.25;;;;;;;;;;4990200;28;20030;-75
2023/05/27 04:10:48;;;;;;;10.45;4.65;;;;;;;;;;5009671;28;20026;-67
2023/05/27 04:13:33;;;;;;;13.15;5.18;;;;;;;;;;5009784;28;20040;-68
2023/05/27 04:16:18;;;;;;;14.05;4.53;;;;;;;;;;5009976;28;20022;-69
2023/05/27 04:19:04;;;;;;;12.57;4.72;;;;;;;;;;5009794;28;20061;-68
2023/05/27 04:21:50;;;;;;;10.45;4.20;;;;;;;;;;5009723;28;20026;-70
2023/05/27 04:24:35;;;;;;;16.52;6.35;;;;;;;;;;5009263;28;20042;-75
2023/05/27 04:27:20;;;;;;;12.98;4.03;;;;;;;;;;5009405;28;20469;-69
2023/05/27 04:30:06;;;;;;;8.07;3.38;;;;;;;;;;5009574;28;20084;-69
2023/05/27 04:32:52;;;;;;;10.27;4.22;;;;;;;;;;5009296;28;20022;-67
2023/05/27 04:35:37;;;;;;;14.77;4.70;;;;;;;;;;5009280;28;20104;-69
2023/05/27 04:38:22;;;;;;;11.48;4.15;;;;;;;;;;5008616;28;20032;-68
2023/05/27 04:41:08;;;;;;;10.65;3.60;;;;;;;;;;4993265;28;20028;-70
2023/05/27 04:43:54;;;;;;;14.77;3.78;;;;;;;;;;5008956;28;20052;-68
2023/05/27 04:46:40;;;;;;;11.15;4.10;;;;;;;;;;5008321;28;20057;-70
2023/05/27 04:49:26;;;;;;;11.15;3.75;;;;;;;;;;5006884;28;20026;-69
2023/05/27 04:52:11;;;;;;;12.88;4.78;;;;;;;;;;4999906;28;20041;-72
2023/05/27 04:54:59;;;;;;;13.05;4.63;;;;;;;;;;5010982;28;20080;-71
2023/05/27 04:57:45;;;;;;;11.98;5.45;;;;;;;;;;5014237;28;20034;-70
2023/05/27 05:00:49;;;;;;;10.30;3.85;;;;;;;;;;5008486;28;20282;-74
2023/05/27 05:03:39;;;;;;;11.65;3.67;;;;;;;;;;5008846;28;20029;-68
2023/05/27 05:06:24;;;;;;;;;;;;;;;;;;4989630;28;20462;-66
2023/05/27 05:09:11;;;;;;;9.77;4.05;;;;;;;;;;4988823;28;19906;-67
2023/05/27 05:11:56;;;;;;;12.73;4.60;;;;;;;;;;5003965;28;20116;-67
2023/05/27 05:14:41;;;;;;;9.85;4.00;;;;;;;;;;5008569;28;20058;-69
2023/05/27 05:17:27;;;;;;;13.95;4.75;;;;;;;;;;5008498;28;20095;-67
2023/05/27 05:20:12;;;;;;;7.78;3.78;;;;;;;;;;5008636;28;20026;-67
2023/05/27 05:22:58;;;;;;;12.77;4.22;;;;;;;;;;5007729;28;20444;-71
2023/05/27 05:25:43;;;;;;;11.23;3.88;;;;;;;;;;5007356;28;20056;-70
2023/05/27 05:28:28;;;;;;;11.98;4.05;;;;;;;;;;5007739;28;20109;-71
2023/05/27 05:31:13;;;;;;;14.57;4.10;;;;;;;;;;5007591;28;20432;-71
2023/05/27 05:33:59;;;;;;;14.02;3.72;;;;;;;;;;5007673;28;20061;-71
2023/05/27 05:36:44;;;;;;;12.68;4.63;;;;;;;;;;5007701;28;20092;-70
2023/05/27 05:39:29;;;;;;;13.68;4.65;;;;;;;;;;5007034;28;20597;-71
2023/05/27 05:42:14;;;;;;;18.08;5.90;;;;;;;;;;5007976;28;20044;-73
2023/05/27 05:44:59;;;;;;;15.43;4.65;;;;;;;;;;5008394;28;20045;-74
2023/05/27 05:47:45;;;;;;;13.18;3.90;;;;;;;;;;5007673;28;20108;-74
2023/05/27 05:50:30;;;;;;;13.57;4.40;;;;;;;;;;4997063;28;20481;-74
2023/05/27 05:53:15;;;;;;;16.13;5.18;;;;;;;;;;5020740;28;20580;-74
2023/05/27 05:56:01;;;;;;;11.10;3.78;;;;;;;;;;4985146;28;20121;-69
2023/05/27 05:58:46;;;;;;;14.20;4.53;;;;;;;;;;4997417;28;20073;-68
2023/05/27 06:01:31;;;;;;;14.30;4.38;;;;;;;;;;5007995;28;20152;-68
2023/05/27 06:04:17;;;;;;;14.73;4.00;;;;;;;;;;5007782;28;20600;-68
2023/05/27 06:07:02;;;;;;;15.15;4.63;;;;;;;;;;5007749;28;20036;-67
2023/05/27 06:09:48;;;;;;;15.38;4.63;;;;;;;;;;5007920;28;20788;-67
2023/05/27 06:12:33;;;;;;;12.75;4.72;;;;;;;;;;5008480;28;20030;-69
2023/05/27 06:15:18;;;;;;;12.25;4.25;;;;;;;;;;5006815;28;20044;-72
2023/05/27 06:18:04;;;;;;;16.90;4.30;;;;;;;;;;5007239;28;20021;-70
2023/05/27 06:20:49;;;;;;;17.65;6.05;;;;;;;;;;5006759;28;20038;-73
2023/05/27 06:23:34;;;;;;;11.00;4.97;;;;;;;;;;5007357;28;20022;-69
2023/05/27 06:26:21;;;;;;;15.70;5.30;;;;;;;;;;4994736;28;20417;-72
2023/05/27 06:29:06;;;;;;;14.98;5.40;;;;;;;;;;5006871;28;20029;-71
2023/05/27 06:31:51;;;;;;;16.40;5.03;;;;;;;;;;5006922;28;20109;-70
2023/05/27 06:34:36;;;;;;;10.93;4.32;;;;;;;;;;5006951;28;20520;-67
2023/05/27 06:37:21;;;;;;;13.88;5.07;;;;;;;;;;5007563;28;20219;-73
2023/05/27 06:40:07;;;;;;;12.27;4.60;;;;;;;;;;5007626;28;20029;-74
2023/05/27 06:42:53;;;;;;;14.07;4.22;;;;;;;;;;5007240;28;20030;-74
2023/05/27 06:45:38;;;;;;;16.58;4.57;;;;;;;;;;4987297;28;20387;-74
2023/05/27 06:48:23;;;;;;;21.90;5.28;;;;;;;;;;5012699;28;20026;-73
2023/05/27 06:51:08;;;;;;;11.55;4.30;;;;;;;;;;4989279;28;20028;-68
2023/05/27 06:53:54;;;;;;;12.40;4.82;;;;;;;;;;5007000;28;20081;-75
2023/05/27 06:56:39;;;;;;;11.50;5.45;;;;;;;;;;5006815;28;20021;-74
2023/05/27 06:59:24;;;;;;;15.23;4.43;;;;;;;;;;4988562;28;20109;-73
2023/05/27 07:02:09;;;;;;;12.13;4.97;;;;;;;;;;4986416;28;20026;-74
2023/05/27 07:04:55;;;;;;;14.85;5.13;;;;;;;;;;5010643;28;20022;-73
2023/05/27 07:07:40;;;;;;;12.40;4.60;;;;;;;;;;5011066;28;20192;-74
2023/05/27 07:10:25;;;;;;;13.23;4.90;;;;;;;;;;5011253;28;20105;-70
2023/05/27 07:13:11;;;;;;;9.85;3.90;;;;;;;;;;5010840;28;20084;-71
2023/05/27 07:15:56;;;;;;;12.77;5.30;;;;;;;;;;5011516;28;20041;-72
2023/05/27 07:18:43;;;;;;;12.55;4.72;;;;;;;;;;5009960;28;20026;-72
2023/05/27 07:21:28;;;;;;;11.50;4.68;;;;;;;;;;5010495;28;20029;-71
2023/05/27 07:24:13;;;;;;;10.95;4.50;;;;;;;;;;5010992;28;20107;-70
2023/05/27 07:26:59;;;;;;;12.15;4.60;;;;;;;;;;5010761;28;20112;-72
2023/05/27 07:29:44;;;;;;;13.98;4.68;;;;;;;;;;4998327;28;20030;-68
2023/05/27 07:32:29;;;;;;;12.75;4.78;;;;;;;;;;5009872;28;20469;-68
2023/05/27 07:35:15;;;;;;;12.50;5.03;;;;;;;;;;5001963;28;20036;-67
2023/05/27 07:38:02;;;;;;;12.18;4.28;;;;;;;;;;4996298;28;20026;-70
2023/05/27 07:40:47;;;;;;;10.75;5.13;;;;;;;;;;5010282;28;20081;-67
2023/05/27 07:43:32;;;;;;;13.07;5.80;;;;;;;;;;4990981;28;20018;-67
2023/05/27 07:46:17;;;;;;;13.65;5.55;;;;;;;;;;5011646;28;20032;-68
2023/05/27 07:49:02;;;;;;;13.13;4.90;;;;;;;;;;4996308;28;20064;-69
2023/05/27 07:51:48;;;;;;;14.77;6.10;;;;;;;;;;4983854;28;20058;-68
2023/05/27 07:54:33;;;;;;;13.90;5.07;;;;;;;;;;5009645;28;20327;-68
2023/05/27 07:57:18;;;;;;;16.35;5.80;;;;;;;;;;5010183;28;20033;-68
2023/05/27 08:00:05;;;;;;;13.43;4.75;;;;;;;;;;5009794;28;20026;-70
2023/05/27 08:02:51;;;;;;;15.18;4.72;;;;;;;;;;4990323;28;20597;-68
2023/05/27 08:05:36;;;;;;;15.25;5.25;;;;;;;;;;5009485;28;20417;-69
2023/05/27 08:08:21;;;;;;;13.85;4.75;;;;;;;;;;5009723;28;20075;-65
2023/05/27 08:11:07;;;;;;;17.98;5.38;;;;;;;;;;5010349;28;20045;-68
2023/05/27 08:13:52;;;;;;;13.50;4.30;;;;;;;;;;5009065;28;20514;-67
2023/05/27 08:16:37;;;;;;;14.32;5.32;;;;;;;;;;5009334;28;20517;-66
2023/05/27 08:19:22;;;;;;;10.07;4.13;;;;;;;;;;5009460;28;20559;-66
2023/05/27 08:22:08;;;;;;;16.83;4.47;;;;;;;;;;5009552;28;20022;-67
2023/05/27 08:24:54;;;;;;;15.23;4.75;;;;;;;;;;5008037;28;20042;-68
2023/05/27 08:28:01;;;;;;;13.02;5.15;;;;;;;;;;5009408;28;20034;-71
2023/05/27 08:30:46;;;;;;;12.75;5.07;;;;;;;;;;5008773;28;20113;-73
2023/05/27 08:33:31;;;;;;;10.48;4.57;;;;;;;;;;5007644;28;20175;-70
2023/05/27 08:36:19;;;;;;;13.48;4.68;;;;;;;;;;5009084;28;20048;-70
2023/05/27 08:39:05;;;;;;;18.35;4.93;;;;;;;;;;5008996;28;20026;-69
2023/05/27 08:41:51;;;;;;;15.32;4.97;;;;;;;;;;5016607;28;20061;-66
2023/05/27 08:44:36;;;;;;;13.68;5.47;;;;;;;;;;5009182;28;20022;-68
2023/05/27 08:47:22;;;;;;;9.43;3.75;;;;;;;;;;5009302;28;20034;-68
2023/05/27 08:50:07;;;;;;;13.85;5.13;;;;;;;;;;5001855;28;20032;-67
2023/05/27 08:52:53;;;;;;;13.93;4.63;;;;;;;;;;4987611;28;20042;-67
2023/05/27 08:55:39;;;;;;;14.52;4.45;;;;;;;;;;5005813;28;20493;-67
2023/05/27 08:58:26;;;;;;;13.32;5.63;;;;;;;;;;5008773;28;20103;-66
2023/05/27 09:01:12;;;;;;;12.90;4.97;;;;;;;;;;5009015;28;20026;-70
2023/05/27 09:03:57;;;;;;;10.60;4.53;;;;;;;;;;5009075;28;20033;-69
2023/05/27 09:06:42;;;;;;;12.05;5.18;;;;;;;;;;5008974;28;20472;-72
2023/05/27 09:09:27;;;;;;;12.35;4.80;;;;;;;;;;5006334;28;20028;-71
2023/05/27 09:12:21;;;;;;;11.88;5.15;;;;;;;;;;5008778;28;20017;-70
2023/05/27 09:15:07;;;;;;;11.90;4.68;;;;;;;;;;5009252;28;20029;-69
2023/05/27 09:17:52;;;;;;;8.77;4.00;;;;;;;;;;5009061;28;20129;-75
2023/05/27 09:20:37;;;;;;;14.90;4.93;;;;;;;;;;5008502;28;20029;-65
2023/05/27 09:23:22;;;;;;;11.77;4.43;;;;;;;;;;5008110;28;20092;-67
2023/05/27 09:26:11;;;;;;;15.35;5.43;;;;;;;;;;5007771;28;20049;-66
2023/05/27 09:28:58;;;;;;;12.88;4.65;;;;;;;;;;5008609;28;20030;-68
2023/05/27 09:31:44;;;;;;;12.40;5.47;;;;;;;;;;5007325;28;20030;-67
2023/05/27 09:34:30;;;;;;;14.95;5.53;;;;;;;;;;5008106;28;20018;-69
2023/05/27 09:37:17;;;;;;;10.77;4.93;;;;;;;;;;5019036;28;20388;-65
2023/05/27 09:40:08;;;;;;;15.15;6.05;;;;;;;;;;4996463;28;20030;-71
2023/05/27 09:42:53;;;;;;;13.63;4.93;;;;;;;;;;5007838;28;20021;-71
2023/05/27 09:45:39;;;;;;;15.70;5.18;;;;;;;;;;5007318;28;20022;-70
2023/05/27 09:48:25;;;;;;;13.65;5.30;;;;;;;;;;5007978;28;20033;-70
2023/05/27 09:51:11;;;;;;;13.52;5.50;;;;;;;;;;4994628;28;20099;-71
2023/05/27 09:53:57;;;;;;;12.15;5.43;;;;;;;;;;5006996;28;20575;-70
2023/05/27 09:56:43;;;;;;;15.70;6.35;;;;;;;;;;5007325;28;20026;-73
2023/05/27 09:59:29;;;;;;;10.68;4.63;;;;;;;;;;5007096;28;20025;-66
2023/05/27 10:02:17;;;;;;;10.80;4.80;;;;;;;;;;5005140;28;20521;-65
2023/05/27 10:05:04;;;;;;;13.23;5.20;;;;;;;;;;5007083;28;20492;-68
2023/05/27 10:07:50;;;;;;;11.27;4.72;;;;;;;;;;5007215;28;20111;-66
2023/05/27 10:10:35;;;;;;;14.32;5.50;;;;;;;;;;5006963;28;20466;-65
2023/05/27 10:13:21;;;;;;;13.63;4.63;;;;;;;;;;5007274;28;20106;-65
2023/05/27 10:16:06;;;;;;;12.07;5.07;;;;;;;;;;5007975;28;20534;-68
2023/05/27 10:18:56;;;;;;;13.90;6.28;;;;;;;;;;5007949;28;20030;-69
2023/05/27 10:21:42;;;;;;;13.15;5.40;;;;;;;;;;4994449;28;20068;-71
2023/05/27 10:24:32;;;;;;;13.75;5.47;;;;;;;;;;5007833;28;20061;-70
2023/05/27 10:27:17;;;;;;;10.93;4.80;;;;;;;;;;5007890;28;20635;-70
2023/05/27 10:30:03;;;;;;;12.68;5.32;;;;;;;;;;5008252;28;20092;-72
2023/05/27 10:32:49;;;;;;;12.82;4.82;;;;;;;;;;5011750;28;20017;-68
2023/05/27 10:35:42;;;;;;;13.18;6.00;;;;;;;;;;5013991;28;20481;-73
2023/05/27 10:38:27;;;;;;;9.38;4.78;;;;;;;;;;5011689;28;20504;-75
2023/05/27 10:41:12;;;;;;;10.05;5.05;;;;;;;;;;5011110;28;20084;-77
2023/05/27 10:43:58;;;;;;;16.35;5.03;;;;;;;;;;5011659;28;20067;-75
2023/05/27 10:46:44;;;;;;;13.85;5.18;;;;;;;;;;5011549;28;20041;-76
2023/05/27 10:49:35;;;;;;;8.90;4.78;;;;;;;;;;5009273;28;20444;-76
2023/05/27 10:52:25;;;;;;;9.50;5.30;;;;;;;;;;5002983;28;20050;-69
2023/05/27 10:55:10;;;;;;;14.18;4.80;;;;;;;;;;4987541;28;20025;-76
2023/05/27 10:57:55;;;;;;;11.27;4.65;;;;;;;;;;5020082;28;20488;-75
2023/05/27 11:00:41;;;;;;;12.60;4.55;;;;;;;;;;5010919;28;20472;-77
2023/05/27 11:03:30;;;;;;;10.88;4.93;;;;;;;;;;5011013;28;20099;-76
2023/05/27 11:06:18;;;;;;;11.32;5.82;;;;;;;;;;5010883;28;20069;-77
2023/05/27 11:09:03;;;;;;;16.63;5.32;;;;;;;;;;5010948;28;20025;-73
2023/05/27 11:11:48;;;;;;;10.27;4.78;;;;;;;;;;5033323;22;20018;-75
2023/05/27 11:14:34;;;;;;;11.93;5.38;;;;;;;;;;4983145;28;20513;-74
2023/05/27 11:17:20;;;;;;;12.00;5.63;;;;;;;;;;4971804;28;20048;-73
2023/05/27 11:20:05;;;;;;;10.57;5.65;;;;;;;;;;4972087;28;20026;-75
2023/05/27 11:22:51;;;;;;;10.35;4.85;;;;;;;;;;4971972;28;20026;-75
2023/05/27 11:25:43;;;;;;;12.23;5.38;;;;;;;;;;4971398;28;20031;-74
2023/05/27 11:28:28;;;;;;;13.25;5.18;;;;;;;;;;4977184;28;20019;-70
2023/05/27 11:31:14;;;;;;;11.75;5.40;;;;;;;;;;4972301;28;20390;-69
2023/05/27 11:34:00;;;;;;;11.38;4.85;;;;;;;;;;4972040;28;20163;-69
2023/05/27 11:36:45;;;;;;;11.48;4.80;;;;;;;;;;4972242;28;20033;-68
2023/05/27 11:39:31;;;;;;;11.02;4.30;;;;;;;;;;4971137;28;20494;-69
2023/05/27 11:42:20;;;;;;;14.02;5.18;;;;;;;;;;4971668;28;20026;-70
2023/05/27 11:45:14;;;;;;;10.65;5.63;;;;;;;;;;4971504;28;20483;-67
2023/05/27 11:47:59;;;;;;;9.15;4.80;;;;;;;;;;4971861;28;20035;-70
2023/05/27 11:50:44;;;;;;;11.27;4.30;;;;;;;;;;4965323;28;20027;-71
2023/05/27 11:53:30;;;;;;;9.73;5.05;;;;;;;;;;4971092;28;20493;-71
2023/05/27 11:56:15;;;;;;;10.57;4.78;;;;;;;;;;4971318;28;20030;-72
2023/05/27 11:59:01;;;;;;;13.40;5.30;;;;;;;;;;4960980;28;20034;-72
2023/05/27 12:01:46;;;;;;;8.98;4.63;;;;;;;;;;4983768;28;20467;-71
2023/05/27 12:04:31;;;;;;;12.32;4.68;;;;;;;;;;4957769;28;20122;-70
2023/05/27 12:07:16;;;;;;;11.23;4.45;;;;;;;;;;4983339;28;20399;-70
2023/05/27 12:10:02;;;;;;;12.43;5.05;;;;;;;;;;4970822;28;20042;-70
2023/05/27 12:12:47;;;;;;;13.23;5.38;;;;;;;;;;4963247;28;20062;-71
2023/05/27 12:15:32;;;;;;;11.52;4.65;;;;;;;;;;4981158;28;20610;-70
2023/05/27 12:18:18;;;;;;;11.13;5.28;;;;;;;;;;4960099;28;20141;-70
2023/05/27 12:21:03;;;;;;;11.15;5.57;;;;;;;;;;4970214;28;20030;-71
2023/05/27 12:23:49;;;;;;;10.52;4.68;;;;;;;;;;4965435;28;20023;-73
2023/05/27 12:26:34;;;;;;;11.27;5.95;;;;;;;;;;4970683;28;20275;-72
2023/05/27 12:29:21;;;;;;;12.50;6.03;;;;;;;;;;4973355;28;20034;-70
2023/05/27 12:32:06;;;;;;;9.38;5.18;;;;;;;;;;4970700;28;20053;-69
2023/05/27 12:34:51;;;;;;;12.93;6.03;;;;;;;;;;4971063;28;20026;-69
2023/05/27 12:37:37;;;;;;;13.85;6.10;;;;;;;;;;4970623;28;20035;-69
2023/05/27 12:40:22;;;;;;;11.13;5.20;;;;;;;;;;4959820;28;20401;-79
2023/05/27 12:43:07;;;;;;;13.65;5.93;;;;;;;;;;4983428;28;20518;-71
2023/05/27 12:45:52;;;;;;;10.68;5.32;;;;;;;;;;4956795;28;20296;-66
2023/05/27 12:48:38;;;;;;;10.35;5.20;;;;;;;;;;4961938;28;20114;-69
2023/05/27 12:51:23;;;;;;;12.40;5.90;;;;;;;;;;4978070;28;20035;-68
2023/05/27 12:54:08;;;;;;;12.23;6.18;;;;;;;;;;4959487;28;20475;-67
2023/05/27 12:56:53;;;;;;;9.32;5.00;;;;;;;;;;4970206;28;20109;-66
2023/05/27 12:59:39;;;;;;;11.93;5.30;;;;;;;;;;4955730;28;20387;-70
2023/05/27 13:02:24;;;;;;;11.27;5.25;;;;;;;;;;4960229;28;20027;-80
2023/05/27 13:05:10;;;;;;;14.20;5.47;;;;;;;;;;4982431;28;20481;-80
2023/05/27 13:07:59;;;;;;;9.48;5.47;;;;;;;;;;4959973;28;20038;-79
2023/05/27 13:10:44;;;;;;;10.18;5.63;;;;;;;;;;4982294;28;20478;-80
2023/05/27 13:13:30;;;;;;;10.85;5.95;;;;;;;;;;4969815;28;20414;-80
2023/05/27 13:16:15;;;;;;;11.40;5.45;;;;;;;;;;4970339;28;20022;-80
2023/05/27 13:19:00;;;;;;;14.50;5.50;;;;;;;;;;4967621;28;20027;-71
2023/05/27 13:21:45;;;;;;;9.57;5.15;;;;;;;;;;4957737;28;20553;-69
2023/05/27 13:24:31;;;;;;;10.38;5.18;;;;;;;;;;4956624;28;20042;-69
2023/05/27 13:27:16;;;;;;;11.55;5.38;;;;;;;;;;4962521;28;20533;-68
2023/05/27 13:30:01;;;;;;;11.15;6.03;;;;;;;;;;4962707;28;20119;-69
2023/05/27 13:32:46;;;;;;;10.27;5.53;;;;;;;;;;4981583;28;20121;-69
2023/05/27 13:35:32;;;;;;;9.77;5.70;;;;;;;;;;4950273;29;20031;-70
2023/05/27 13:38:17;;;;;;;13.75;6.40;;;;;;;;;;4969727;28;20038;-69
2023/05/27 13:41:02;;;;;;;12.13;5.53;;;;;;;;;;4955605;28;20476;-72
2023/05/27 13:43:47;;;;;;;10.10;5.53;;;;;;;;;;4958344;28;20031;-69
2023/05/27 13:46:33;;;;;;;12.98;5.57;;;;;;;;;;4982695;28;20490;-69
2023/05/27 13:49:18;;;;;;;10.68;5.03;;;;;;;;;;4955222;28;20034;-70
2023/05/27 13:52:03;;;;;;;14.38;5.68;;;;;;;;;;4968816;28;20019;-70
2023/05/27 13:54:49;;;;;;;14.68;6.50;;;;;;;;;;4967276;28;20045;-77
2023/05/27 13:57:34;;;;;;;9.90;4.28;;;;;;;;;;4957225;28;20027;-69
2023/05/27 14:00:19;;;;;;;13.20;4.82;;;;;;;;;;4982839;28;20027;-70
2023/05/27 14:03:05;;;;;;;11.10;4.43;;;;;;;;;;4969201;28;20211;-69
2023/05/27 14:05:51;;;;;;;17.13;5.47;;;;;;;;;;4962700;28;20023;-69
2023/05/27 14:08:36;;;;;;;23.40;6.20;;;;;;;;;;4978497;28;20030;-69
2023/05/27 14:11:22;;;;;;;9.23;4.43;;;;;;;;;;4961710;28;20031;-69
2023/05/27 14:14:07;;;;;;;10.25;4.40;;;;;;;;;;4984979;28;20498;-77
2023/05/27 14:16:53;;;;;;;13.35;5.07;;;;;;;;;;4973087;28;20070;-77
2023/05/27 14:19:38;;;;;;;9.80;4.07;;;;;;;;;;4986168;28;20490;-67
2023/05/27 14:22:24;;;;;;;12.70;5.05;;;;;;;;;;4972534;28;20011;-80
2023/05/27 14:25:09;;;;;;;10.93;4.85;;;;;;;;;;4975839;28;20102;-77
2023/05/27 14:27:56;;;;;;;14.65;4.95;;;;;;;;;;4966879;28;20058;-76
2023/05/27 14:30:41;;;;;;;11.23;5.13;;;;;;;;;;4968524;28;20106;-67
2023/05/27 14:33:27;;;;;;;11.32;5.00;;;;;;;;;;4963030;28;20046;-82
2023/05/27 14:36:13;;;;;;;13.40;5.10;;;;;;;;;;4984966;28;20070;-82
2023/05/27 14:38:58;;;;;;;8.10;4.20;;;;;;;;;;4959705;28;20034;-81
2023/05/27 14:41:43;;;;;;;12.27;4.28;;;;;;;;;;4986028;28;20470;-81
2023/05/27 14:44:29;;;;;;;11.05;4.70;;;;;;;;;;4959177;28;20029;-81
2023/05/27 14:47:15;;;;;;;9.43;4.07;;;;;;;;;;4961305;28;20517;-80
2023/05/27 14:50:00;;;;;;;11.23;4.40;;;;;;;;;;4982253;28;20012;-78
2023/05/27 14:52:45;;;;;;;8.15;4.35;;;;;;;;;;4972099;28;20117;-69
2023/05/27 14:55:30;;;;;;;8.35;4.50;;;;;;;;;;4972324;28;20118;-70
2023/05/27 14:58:15;;;;;;;8.93;3.75;;;;;;;;;;4959414;28;20110;-68
2023/05/27 15:01:01;;;;;;;8.02;3.75;;;;;;;;;;4959345;28;20050;-70
2023/05/27 15:03:46;;;;;;;9.32;3.63;;;;;;;;;;4969933;28;20027;-70
2023/05/27 15:06:32;;;;;;;7.28;3.72;;;;;;;;;;4971882;28;20478;-70
2023/05/27 15:09:17;;;;;;;6.85;3.75;;;;;;;;;;4972068;28;20171;-67
2023/05/27 15:12:05;;;;;;;10.18;4.00;;;;;;;;;;4958200;28;20051;-66
2023/05/27 15:14:50;;;;;;;8.00;3.92;;;;;;;;;;4985801;28;20105;-67
2023/05/27 15:17:36;;;;;;;10.75;3.42;;;;;;;;;;4958474;28;20142;-64
2023/05/27 15:20:21;;;;;;;9.70;3.38;;;;;;;;;;4968396;28;20027;-66
2023/05/27 15:23:06;;;;;;;7.15;3.50;;;;;;;;;;4971075;28;20035;-66
2023/05/27 15:25:53;;;;;;;8.15;3.60;;;;;;;;;;4957247;28;20034;-68
2023/05/27 15:28:38;;;;;;;9.70;3.95;;;;;;;;;;4959878;28;20039;-67
2023/05/27 15:31:23;;;;;;;10.68;4.60;;;;;;;;;;4985357;28;20029;-69
2023/05/27 15:34:08;;;;;;;9.45;4.53;;;;;;;;;;4958473;28;20049;-69
2023/05/27 15:36:54;;;;;;;7.72;3.58;;;;;;;;;;4961856;28;20020;-68
2023/05/27 15:39:39;;;;;;;8.82;3.42;;;;;;;;;;4970116;28;20031;-69
2023/05/27 15:42:25;;;;;;;11.38;4.78;;;;;;;;;;4958420;28;20163;-71
2023/05/27 15:45:10;;;;;;;8.50;4.20;;;;;;;;;;4974347;28;20124;-81
2023/05/27 15:47:55;;;;;;;9.55;5.00;;;;;;;;;;4958044;28;20049;-68
2023/05/27 15:50:41;;;;;;;8.60;4.07;;;;;;;;;;4967609;28;20030;-68
2023/05/27 15:53:26;;;;;;;8.48;3.75;;;;;;;;;;4971686;28;20117;-68
2023/05/27 15:56:11;;;;;;;12.07;3.75;;;;;;;;;;4957620;28;20071;-69
2023/05/27 15:58:57;;;;;;;8.40;4.45;;;;;;;;;;4971211;28;20030;-68
2023/05/27 16:01:42;;;;;;;8.10;4.07;;;;;;;;;;4970062;28;20166;-69
2023/05/27 16:04:27;;;;;;;10.95;4.20;;;;;;;;;;4958633;28;20185;-69
2023/05/27 16:07:13;;;;;;;8.85;3.70;;;;;;;;;;4976899;28;20077;-67
2023/05/27 16:09:58;;;;;;;7.60;3.42;;;;;;;;;;4958811;28;20031;-66
2023/05/27 16:12:43;;;;;;;9.05;3.78;;;;;;;;;;4984393;28;20050;-69
2023/05/27 16:15:29;;;;;;;8.15;3.85;;;;;;;;;;4957310;28;20054;-67
2023/05/27 16:18:16;;;;;;;10.68;4.30;;;;;;;;;;4975894;28;20026;-67
2023/05/27 16:21:01;;;;;;;6.75;3.60;;;;;;;;;;4961439;28;20035;-67
2023/05/27 16:23:46;;;;;;;10.82;4.68;;;;;;;;;;4970943;28;20383;-70